MMTJ/TIJ METAR and TAF weather

Enter ICAO airport designator
Station Type Date Time Source
MMTJ METAR 2019/06/17 05:43 UTC NOAA

MMTJ 170543Z 00000KT 6SM OVC011 17/14 A2993 RMK SLP135 53009 960 60005 8/7// DZE31


Station Type Date Time Source
MMTJ Decoded METAR 2019/06/17 05:43 UTC NOAA

Tijuana International Airport , Mexico (MMTJ) 32-33N 116-58W
Jun 17, 2019 - 01:43 AM EDT / 2019.06.17 0543 UTC
Wind: Calm:0
Visibility: 6 mile(s):0
Sky conditions: overcast
Temperature: 62 F (17 C)
Dew Point: 57 F (14 C)
Relative Humidity: 82%
Pressure (altimeter): 29.93 in. Hg (1013 hPa)
Pressure tendency: 0.03 inches (0.9 hPa) higher than three hours ago
ob: MMTJ 170543Z 00000KT 6SM OVC011 17/14 A2993 RMK SLP135 53009 960 60005 8/7// DZE31
cycle: 5

Station Type Date Time Source
MMTJ TAF 2019/06/17 06:53 UTC NOAA

TAF MMTJ 170449Z 1706/1812 26005KT 6SM -DZ OVC014 TX21/1720Z TN17/1712Z
TEMPO 1711/1715 2 1/2SM -DZ BR
FM171800 27010KT P6SM BKN015
FM180600 27004KT 6SM HZ SCT015
BECMG 1808/1810 00000KT

Example: see airport list